Time;durP1;ratioP1;P1;durP2;ratioP2;P2;SDS_P1;SDS_P2;PMS_P1;PMS_P2;Temp;Humidity;BMP_temperature;BMP_pressure;BME280_temperature;BME280_humidity;BME280_pressure;Samples;Min_cycle;Max_cycle;Signal;HPM_P1;HPM_P2
2021/03/30 00:00:26;;;;;;;13.93;7.23;;;10.90;99.90;;;;;;5016409;28;20277;-54
2021/03/30 00:02:54;;;;;;;15.17;6.57;;;10.90;99.90;;;;;;4994956;28;20237;-53
2021/03/30 00:05:21;;;;;;;14.20;7.23;;;11.00;99.90;;;;;;4986904;28;20654;-53
2021/03/30 00:07:48;;;;;;;16.60;6.87;;;10.90;99.90;;;;;;4988655;28;20237;-54
2021/03/30 00:10:20;;;;;;;14.70;6.70;;;10.80;99.90;;;;;;4987643;28;20639;-54
2021/03/30 00:12:47;;;;;;;16.10;7.37;;;10.80;99.90;;;;;;4973599;28;20706;-55
2021/03/30 00:15:16;;;;;;;14.23;7.10;;;10.80;99.90;;;;;;4969420;28;20252;-53
2021/03/30 00:17:44;;;;;;;14.43;6.83;;;10.70;99.90;;;;;;4968814;28;20247;-55
2021/03/30 00:20:15;;;;;;;16.40;7.43;;;10.70;99.90;;;;;;4968356;28;20282;-53
2021/03/30 00:22:43;;;;;;;12.10;7.43;;;10.80;99.90;;;;;;4974958;28;20245;-52
2021/03/30 00:25:13;;;;;;;18.07;7.67;;;10.80;99.90;;;;;;4988733;28;20256;-54
2021/03/30 00:27:41;;;;;;;14.63;8.00;;;10.70;99.90;;;;;;4988472;28;20323;-54
2021/03/30 00:30:11;;;;;;;14.17;7.93;;;10.60;99.90;;;;;;4981891;28;20296;-52
2021/03/30 00:32:40;;;;;;;17.83;7.60;;;10.60;99.90;;;;;;5002209;28;20244;-52
2021/03/30 00:35:09;;;;;;;15.23;7.60;;;10.60;99.90;;;;;;5003658;28;20310;-53
2021/03/30 00:37:37;;;;;;;16.30;8.97;;;10.60;99.90;;;;;;5007905;28;20240;-54
2021/03/30 00:40:09;;;;;;;16.20;8.67;;;10.60;99.90;;;;;;5001624;28;20236;-53
2021/03/30 00:42:36;;;;;;;17.67;8.37;;;10.60;99.90;;;;;;4988117;28;20693;-56
2021/03/30 00:45:06;;;;;;;17.83;8.23;;;10.50;99.90;;;;;;4992168;28;20251;-55
2021/03/30 00:47:35;;;;;;;15.90;8.50;;;10.50;99.90;;;;;;4992316;28;20243;-53
2021/03/30 00:50:07;;;;;;;17.17;8.73;;;10.50;99.90;;;;;;5011493;28;20252;-56
2021/03/30 00:52:37;;;;;;;12.90;8.20;;;10.50;99.90;;;;;;5003215;28;20250;-54
2021/03/30 00:55:24;;;;;;;14.90;8.33;;;10.50;99.90;;;;;;4989293;28;20838;-52
2021/03/30 00:57:52;;;;;;;16.60;8.63;;;10.50;99.90;;;;;;5007830;28;20319;-52
2021/03/30 01:00:21;;;;;;;19.20;9.47;;;10.40;99.90;;;;;;5004988;28;20243;-56
2021/03/30 01:02:48;;;;;;;15.13;9.33;;;10.40;99.90;;;;;;5011310;28;20266;-56
2021/03/30 01:05:17;;;;;;;16.37;9.43;;;10.30;99.90;;;;;;5011609;28;20669;-53
2021/03/30 01:08:05;;;;;;;24.57;8.83;;;10.30;99.90;;;;;;5011136;28;20612;-52
2021/03/30 01:10:45;;;;;;;16.73;9.13;;;10.30;99.90;;;;;;4990675;28;20239;-53
2021/03/30 01:13:31;;;;;;;17.20;9.23;;;10.30;99.90;;;;;;5006535;28;20298;-54
2021/03/30 01:16:04;;;;;;;17.93;9.47;;;10.20;99.90;;;;;;4984110;28;20244;-53
2021/03/30 01:18:37;;;;;;;16.57;8.90;;;10.20;99.90;;;;;;4982633;28;20295;-52
2021/03/30 01:21:33;;;;;;;17.13;8.80;;;10.20;99.90;;;;;;4990629;28;20255;-53
2021/03/30 01:24:09;;;;;;;15.97;8.50;;;10.30;99.90;;;;;;4991002;28;20248;-54
2021/03/30 01:26:59;;;;;;;14.23;8.40;;;10.40;99.90;;;;;;4996414;28;20322;-54
2021/03/30 01:29:39;;;;;;;16.57;8.90;;;10.40;99.90;;;;;;4996947;28;20242;-52
2021/03/30 01:32:14;;;;;;;14.87;9.03;;;10.30;99.90;;;;;;4999592;28;20341;-53
2021/03/30 01:34:47;;;;;;;15.18;8.13;;;10.20;99.90;;;;;;1347398;28;10022668;-55
2021/03/30 01:37:17;;;;;;;13.90;7.63;;;10.20;99.90;;;;;;4645973;28;10001039;-56
2021/03/30 01:39:49;;;;;;;15.27;8.03;;;10.30;99.90;;;;;;4999277;28;20242;-52
2021/03/30 01:42:23;;;;;;;15.77;7.67;;;10.20;99.90;;;;;;4987695;28;20693;-52
2021/03/30 01:44:52;;;;;;;14.07;8.07;;;10.20;99.90;;;;;;4991271;28;20290;-52
2021/03/30 01:47:20;;;;;;;15.83;8.27;;;10.30;99.90;;;;;;4987768;28;20243;-53
2021/03/30 01:49:48;;;;;;;12.87;7.87;;;10.20;99.90;;;;;;4987582;28;20925;-53
2021/03/30 01:52:18;;;;;;;13.87;7.80;;;10.20;99.90;;;;;;4989305;28;20298;-52
2021/03/30 01:54:48;;;;;;;13.43;7.47;;;10.20;99.90;;;;;;5000220;28;20642;-53
2021/03/30 01:57:20;;;;;;;15.23;7.33;;;10.20;99.90;;;;;;5007387;28;20612;-53
2021/03/30 01:59:51;;;;;;;17.27;7.77;;;10.10;99.90;;;;;;5023539;28;20260;-52
2021/03/30 02:02:20;;;;;;;13.27;6.80;;;10.10;99.90;;;;;;4990309;28;20831;-53
2021/03/30 02:04:48;;;;;;;16.37;7.53;;;10.20;99.90;;;;;;4990935;28;20314;-53
2021/03/30 02:07:21;;;;;;;18.73;6.87;;;10.10;99.90;;;;;;4995273;28;20257;-52
2021/03/30 02:09:54;;;;;;;11.30;6.63;;;10.10;99.90;;;;;;5009708;28;20613;-54
2021/03/30 02:12:24;;;;;;;13.13;6.90;;;10.10;99.90;;;;;;5007597;28;20301;-53
2021/03/30 02:14:52;;;;;;;15.30;6.90;;;10.10;99.90;;;;;;4993000;28;20592;-51
2021/03/30 02:17:28;;;;;;;14.07;7.57;;;10.10;99.90;;;;;;4997498;28;20286;-52
2021/03/30 02:20:07;;;;;;;12.80;7.00;;;10.10;99.90;;;;;;5019034;28;20242;-54
2021/03/30 02:22:43;;;;;;;16.10;7.17;;;10.10;99.90;;;;;;5006957;28;20254;-56
2021/03/30 02:25:11;;;;;;;13.03;6.87;;;10.10;99.90;;;;;;4993941;28;20243;-55
2021/03/30 02:27:41;;;;;;;15.87;7.37;;;10.00;99.90;;;;;;5005437;28;20540;-52
2021/03/30 02:30:14;;;;;;;17.90;7.93;;;9.90;99.90;;;;;;5004561;28;20245;-51
2021/03/30 02:32:44;;;;;;;14.70;7.13;;;9.90;99.90;;;;;;4990321;28;20238;-56
2021/03/30 02:35:14;;;;;;;17.60;7.70;;;9.90;99.90;;;;;;4990436;28;20247;-54
2021/03/30 02:37:43;;;;;;;15.47;6.77;;;9.80;99.90;;;;;;4972936;28;20260;-52
2021/03/30 02:40:15;;;;;;;14.47;6.63;;;9.80;99.90;;;;;;5001925;28;20691;-53
2021/03/30 02:42:46;;;;;;;13.63;7.27;;;9.90;99.90;;;;;;4990194;28;20235;-52
2021/03/30 02:45:18;;;;;;;14.23;6.57;;;9.80;99.90;;;;;;4990054;28;20243;-52
2021/03/30 02:48:07;;;;;;;10.87;6.30;;;9.80;99.90;;;;;;4970751;28;20247;-52
2021/03/30 02:50:35;;;;;;;13.13;7.23;;;9.90;99.90;;;;;;4982211;28;20724;-53
2021/03/30 02:53:04;;;;;;;14.73;6.73;;;9.80;99.90;;;;;;4982262;28;20594;-55
2021/03/30 02:55:33;;;;;;;16.60;6.30;;;9.90;99.90;;;;;;4997225;28;20418;-55
2021/03/30 02:58:04;;;;;;;16.13;7.57;;;9.80;99.90;;;;;;5009063;28;20233;-52
2021/03/30 03:00:33;;;;;;;13.43;6.80;;;9.80;99.90;;;;;;5007889;28;20290;-52
2021/03/30 03:03:04;;;;;;;12.97;6.83;;;9.80;99.90;;;;;;5009332;28;20230;-56
2021/03/30 03:05:32;;;;;;;12.77;6.60;;;9.80;99.90;;;;;;5009031;28;20295;-53
2021/03/30 03:07:59;;;;;;;14.77;7.00;;;9.80;99.90;;;;;;5008255;28;20244;-53
2021/03/30 03:10:27;;;;;;;14.80;7.17;;;9.90;99.90;;;;;;5008089;28;20246;-52
2021/03/30 03:12:55;;;;;;;16.43;7.20;;;9.90;99.90;;;;;;5008705;28;20274;-52
2021/03/30 03:15:24;;;;;;;13.63;6.67;;;9.70;99.90;;;;;;5009215;28;20630;-54
2021/03/30 03:17:52;;;;;;;12.57;6.27;;;9.90;99.90;;;;;;5008732;28;20301;-53
2021/03/30 03:20:21;;;;;;;10.47;6.10;;;9.80;99.90;;;;;;5008312;28;20243;-51
2021/03/30 03:22:48;;;;;;;10.80;5.47;;;9.90;99.90;;;;;;5007993;28;20234;-52
2021/03/30 03:25:16;;;;;;;13.67;5.87;;;9.90;99.90;;;;;;5005144;28;20320;-52
2021/03/30 03:27:43;;;;;;;14.73;5.97;;;9.80;99.90;;;;;;5009023;28;20234;-54
2021/03/30 03:30:13;;;;;;;12.47;6.00;;;10.00;99.90;;;;;;5022388;28;20249;-56
2021/03/30 03:32:41;;;;;;;11.57;5.93;;;9.90;99.90;;;;;;4996475;28;20246;-55
2021/03/30 03:35:14;;;;;;;13.47;6.10;;;9.90;99.90;;;;;;5008444;28;20238;-51
2021/03/30 03:37:43;;;;;;;12.40;6.47;;;9.90;99.90;;;;;;5008563;28;20232;-53
2021/03/30 03:40:12;;;;;;;12.83;6.77;;;9.90;99.90;;;;;;5027568;28;20688;-52
2021/03/30 03:42:40;;;;;;;13.77;7.00;;;9.90;99.90;;;;;;5006208;28;20241;-55
2021/03/30 03:45:10;;;;;;;12.40;6.67;;;10.00;99.90;;;;;;4969856;28;20349;-54
2021/03/30 03:47:38;;;;;;;15.30;7.27;;;10.00;99.90;;;;;;4988440;28;20238;-54
2021/03/30 03:50:07;;;;;;;14.20;7.50;;;10.00;99.90;;;;;;5005910;28;20296;-52
2021/03/30 03:52:40;;;;;;;15.07;7.37;;;9.80;99.90;;;;;;4996820;28;20246;-56
2021/03/30 03:55:12;;;;;;;17.33;7.97;;;9.80;99.90;;;;;;5000516;28;20291;-54
2021/03/30 03:57:48;;;;;;;14.33;8.73;;;9.80;99.90;;;;;;4988419;28;20255;-54
2021/03/30 04:00:17;;;;;;;18.03;8.60;;;9.90;99.90;;;;;;4987550;28;20249;-52
2021/03/30 04:02:48;;;;;;;12.80;9.40;;;9.80;99.90;;;;;;4996294;28;20307;-52
2021/03/30 04:05:19;;;;;;;16.47;9.27;;;9.70;99.90;;;;;;5015394;28;20316;-53
2021/03/30 04:07:52;;;;;;;18.50;10.27;;;9.80;99.90;;;;;;5012879;28;20232;-54
2021/03/30 04:10:22;;;;;;;17.57;11.17;;;9.70;99.90;;;;;;4998519;28;20238;-52
2021/03/30 04:12:51;;;;;;;18.90;9.60;;;9.70;99.90;;;;;;4996555;28;20642;-51
2021/03/30 04:15:21;;;;;;;16.57;10.33;;;9.70;99.90;;;;;;4997175;28;20291;-52
2021/03/30 04:17:52;;;;;;;17.53;10.23;;;9.60;99.90;;;;;;4996609;28;20292;-52
2021/03/30 04:20:21;;;;;;;24.10;11.10;;;9.60;99.90;;;;;;4997569;28;20291;-52
2021/03/30 04:22:52;;;;;;;18.93;11.10;;;9.50;99.90;;;;;;4997470;28;20322;-53
2021/03/30 04:25:20;;;;;;;15.67;10.70;;;9.60;99.90;;;;;;5000166;28;20298;-52
2021/03/30 04:27:47;;;;;;;18.10;11.00;;;9.60;99.90;;;;;;5002794;28;20242;-52
2021/03/30 04:30:16;;;;;;;18.50;10.97;;;9.60;99.90;;;;;;4977252;28;20269;-54
2021/03/30 04:32:44;;;;;;;22.47;11.53;;;9.60;99.90;;;;;;4997539;28;20580;-56
2021/03/30 04:35:12;;;;;;;15.83;11.60;;;9.60;99.90;;;;;;4990282;28;20233;-55
2021/03/30 04:37:40;;;;;;;16.60;10.67;;;9.50;99.90;;;;;;4977602;28;20245;-53
2021/03/30 04:40:12;;;;;;;19.60;11.47;;;9.50;99.90;;;;;;4977205;28;20254;-53
2021/03/30 04:42:40;;;;;;;24.70;11.33;;;9.50;99.90;;;;;;4978985;28;20693;-53
2021/03/30 04:45:10;;;;;;;19.47;12.10;;;9.40;99.90;;;;;;4988857;28;20318;-53
2021/03/30 04:47:38;;;;;;;21.23;12.10;;;9.40;99.90;;;;;;4993315;28;20250;-53
2021/03/30 04:50:08;;;;;;;17.97;12.27;;;9.40;99.90;;;;;;4999888;28;20250;-52
2021/03/30 04:52:35;;;;;;;19.83;11.13;;;9.40;99.90;;;;;;4997469;28;20247;-54
2021/03/30 04:55:03;;;;;;;21.20;12.07;;;9.50;99.90;;;;;;4991516;28;20707;-56
2021/03/30 04:57:31;;;;;;;19.80;12.77;;;9.50;99.90;;;;;;4987843;28;20330;-51
2021/03/30 04:59:59;;;;;;;23.33;13.77;;;9.50;99.90;;;;;;4987684;28;20778;-53
2021/03/30 05:02:26;;;;;;;20.27;13.70;;;9.60;99.90;;;;;;4999524;28;20243;-53
2021/03/30 05:04:54;;;;;;;22.30;15.00;;;9.70;99.90;;;;;;5019348;28;20237;-52
2021/03/30 05:07:22;;;;;;;22.20;14.17;;;9.90;99.90;;;;;;4971088;28;20241;-51
2021/03/30 05:09:49;;;;;;;21.60;13.90;;;9.70;99.90;;;;;;4972509;28;20826;-52
2021/03/30 05:12:16;;;;;;;20.93;14.77;;;9.70;99.90;;;;;;4998075;28;20299;-55
2021/03/30 05:14:44;;;;;;;23.43;14.57;;;9.70;99.90;;;;;;5007143;28;20250;-52
2021/03/30 05:17:12;;;;;;;21.90;14.33;;;9.70;99.90;;;;;;5000362;28;20288;-52
2021/03/30 05:19:41;;;;;;;25.20;15.03;;;9.70;99.90;;;;;;4998478;28;20266;-54
2021/03/30 05:22:08;;;;;;;20.37;14.27;;;9.70;99.90;;;;;;5004428;28;20666;-52
2021/03/30 05:24:38;;;;;;;24.00;15.63;;;9.70;99.90;;;;;;5007175;28;20239;-55
2021/03/30 05:27:07;;;;;;;22.40;14.87;;;9.90;99.90;;;;;;5007389;28;20246;-51
2021/03/30 05:29:43;;;;;;;20.13;14.93;;;9.90;99.90;;;;;;5006700;28;20284;-52
2021/03/30 05:32:12;;;;;;;22.27;14.97;;;9.80;99.90;;;;;;5016974;28;20242;-52
2021/03/30 05:34:40;;;;;;;24.13;15.27;;;9.90;99.90;;;;;;4989097;28;20243;-52
2021/03/30 05:37:09;;;;;;;20.10;14.00;;;9.90;99.90;;;;;;4988217;28;20241;-53
2021/03/30 05:39:37;;;;;;;21.47;13.43;;;9.80;99.90;;;;;;4992097;28;20321;-56
2021/03/30 05:42:05;;;;;;;20.60;13.33;;;9.80;99.90;;;;;;4978841;28;20690;-53
2021/03/30 05:44:34;;;;;;;22.33;13.10;;;10.00;99.90;;;;;;4982068;28;20248;-53
2021/03/30 05:47:11;;;;;;;20.67;13.27;;;10.00;99.90;;;;;;5002523;28;20251;-54
2021/03/30 05:49:41;;;;;;;19.10;13.30;;;10.10;99.90;;;;;;5002567;28;20270;-53
2021/03/30 05:52:16;;;;;;;21.30;13.07;;;10.00;99.90;;;;;;4998333;28;20270;-53
2021/03/30 05:54:47;;;;;;;16.63;12.83;;;10.10;99.90;;;;;;4997055;28;20698;-52
2021/03/30 05:57:16;;;;;;;18.70;12.90;;;10.10;99.90;;;;;;4999428;28;20245;-54
2021/03/30 05:59:53;;;;;;;18.13;12.20;;;10.10;99.90;;;;;;4997645;28;20249;-55
2021/03/30 06:02:22;;;;;;;22.07;12.03;;;10.20;99.90;;;;;;5000464;28;20281;-53
2021/03/30 06:04:51;;;;;;;20.60;13.10;;;10.30;99.90;;;;;;4994957;28;20699;-56
2021/03/30 06:11:41;;;;;;;18.88;11.24;;;10.50;99.90;;;;;;2515011;28;10003421;-56
2021/03/30 06:14:09;;;;;;;15.83;11.40;;;10.60;99.90;;;;;;3271905;28;10001345;-54
2021/03/30 06:16:39;;;;;;;15.73;11.27;;;10.70;99.90;;;;;;5000646;28;20488;-55
2021/03/30 06:19:14;;;;;;;18.07;11.07;;;10.80;99.90;;;;;;5001357;28;20252;-54
2021/03/30 06:21:45;;;;;;;17.03;11.10;;;10.90;99.90;;;;;;5001435;28;20292;-54
2021/03/30 06:27:28;;;;;;;18.77;11.50;;;11.10;99.90;;;;;;4985660;28;20696;-82
2021/03/30 06:29:59;;;;;;;18.50;11.23;;;11.30;99.90;;;;;;5015848;28;20241;-82
2021/03/30 06:32:28;;;;;;;20.37;11.70;;;11.50;99.90;;;;;;5011593;28;20327;-80
2021/03/30 06:35:11;;;;;;;16.67;11.23;;;11.60;99.90;;;;;;5024354;28;20286;-82
2021/03/30 06:37:41;;;;;;;16.60;11.13;;;11.80;99.90;;;;;;5011688;28;20266;-82
2021/03/30 06:40:21;;;;;;;17.67;11.63;;;11.90;99.90;;;;;;5010766;28;20851;-82
2021/03/30 06:42:52;;;;;;;13.63;10.40;;;12.00;99.90;;;;;;5013626;28;20240;-82
2021/03/30 06:45:30;;;;;;;13.70;9.93;;;12.10;99.90;;;;;;5013404;28;20324;-82
2021/03/30 06:48:01;;;;;;;14.77;10.73;;;12.20;99.90;;;;;;5011975;28;20323;-83
2021/03/30 06:50:30;;;;;;;17.33;10.30;;;12.40;99.90;;;;;;5011904;28;20252;-82
2021/03/30 06:53:11;;;;;;;15.70;10.87;;;12.60;99.90;;;;;;5031610;28;20245;-82
2021/03/30 06:55:47;;;;;;;16.80;10.37;;;12.70;99.90;;;;;;5015514;28;20244;-83
2021/03/30 06:58:16;;;;;;;19.60;10.27;;;12.90;99.90;;;;;;5013901;28;20241;-80
2021/03/30 07:00:45;;;;;;;19.03;9.90;;;13.00;99.90;;;;;;5008485;28;21424;-82
2021/03/30 07:03:17;;;;;;;15.07;9.97;;;13.10;99.90;;;;;;5020519;28;20683;-81
2021/03/30 07:05:47;;;;;;;12.67;9.17;;;13.20;99.90;;;;;;5020992;28;20236;-81
2021/03/30 07:08:17;;;;;;;15.70;9.67;;;13.30;99.90;;;;;;5013507;28;20235;-82
2021/03/30 07:10:47;;;;;;;16.47;10.30;;;13.40;99.90;;;;;;5012020;28;20248;-82
2021/03/30 07:13:17;;;;;;;16.07;10.57;;;13.60;99.90;;;;;;5013272;28;20240;-82
2021/03/30 07:15:46;;;;;;;13.13;9.23;;;13.60;99.90;;;;;;5014190;28;20666;-82
2021/03/30 07:18:23;;;;;;;13.13;8.93;;;13.80;99.90;;;;;;5017094;28;20831;-83
2021/03/30 07:21:00;;;;;;;13.43;9.30;;;13.90;99.90;;;;;;5011813;28;20534;-82
2021/03/30 07:23:34;;;;;;;15.23;9.27;;;14.20;99.90;;;;;;5015872;28;20240;-82
2021/03/30 07:26:10;;;;;;;17.30;9.50;;;14.30;99.90;;;;;;5003786;28;20233;-82
2021/03/30 07:28:44;;;;;;;13.97;9.03;;;14.40;99.90;;;;;;5000908;28;20239;-83
2021/03/30 07:31:16;;;;;;;12.23;8.20;;;14.60;99.90;;;;;;5005702;28;20241;-82
2021/03/30 07:33:49;;;;;;;12.57;8.57;;;14.80;99.90;;;;;;5009741;28;20252;-83
2021/03/30 07:36:21;;;;;;;12.80;9.07;;;14.90;99.90;;;;;;5010605;28;20284;-82
2021/03/30 07:38:55;;;;;;;11.03;8.60;;;15.10;99.90;;;;;;5016931;28;20239;-82
2021/03/30 07:41:24;;;;;;;12.00;8.53;;;15.20;99.90;;;;;;5019077;28;20271;-83
2021/03/30 07:43:53;;;;;;;14.50;8.10;;;15.30;99.90;;;;;;5022958;28;20963;-83
2021/03/30 07:46:22;;;;;;;11.33;8.03;;;15.40;99.90;;;;;;5019921;28;20236;-82
2021/03/30 07:48:50;;;;;;;11.00;7.90;;;15.50;99.90;;;;;;5029564;28;20244;-82
2021/03/30 07:51:22;;;;;;;14.07;8.73;;;15.70;99.90;;;;;;5017112;28;20244;-82
2021/03/30 07:53:54;;;;;;;15.37;7.97;;;15.70;99.90;;;;;;5026842;28;20240;-82
2021/03/30 07:56:54;;;;;;;10.97;8.17;;;15.90;99.90;;;;;;5013142;28;21011;-82
2021/03/30 07:59:49;;;;;;;12.37;8.00;;;16.10;99.90;;;;;;5015263;28;20229;-82
2021/03/30 08:02:24;;;;;;;12.27;7.57;;;16.30;99.90;;;;;;4967504;28;20337;-83
2021/03/30 08:05:12;;;;;;;13.80;8.37;;;16.50;99.90;;;;;;4997225;28;20229;-83
2021/03/30 08:07:52;;;;;;;12.57;8.07;;;16.60;99.90;;;;;;5004191;28;20559;-83
2021/03/30 08:10:24;;;;;;;13.53;8.23;;;16.80;99.90;;;;;;5015761;28;20748;-83
2021/03/30 08:13:22;;;;;;;11.03;8.00;;;16.80;99.90;;;;;;5013142;28;20236;-83
2021/03/30 08:15:52;;;;;;;12.97;8.23;;;16.90;99.90;;;;;;5004289;28;20234;-83
2021/03/30 08:18:23;;;;;;;13.40;8.17;;;17.00;99.90;;;;;;5008246;28;20233;-82
2021/03/30 08:20:57;;;;;;;14.27;8.00;;;17.10;99.90;;;;;;5008623;28;20248;-82
2021/03/30 08:23:24;;;;;;;13.70;7.53;;;17.20;99.90;;;;;;5008940;28;20237;-83
2021/03/30 08:26:17;;;;;;;13.80;7.60;;;17.50;99.90;;;;;;5006316;28;20332;-83
2021/03/30 08:29:00;;;;;;;13.70;7.53;;;17.80;99.90;;;;;;5023445;28;20230;-83
2021/03/30 08:31:33;;;;;;;16.60;7.83;;;17.90;99.90;;;;;;5008330;28;20238;-83
2021/03/30 08:34:05;;;;;;;12.13;7.50;;;18.00;99.90;;;;;;5007987;28;20234;-82
2021/03/30 08:36:40;;;;;;;11.47;7.40;;;18.10;99.90;;;;;;5007301;28;20711;-82
2021/03/30 08:39:10;;;;;;;13.33;8.43;;;18.10;99.90;;;;;;5006470;28;20241;-83
2021/03/30 08:42:01;;;;;;;13.53;8.17;;;18.20;99.90;;;;;;5010485;28;20243;-83
2021/03/30 08:44:48;;;;;;;11.80;8.37;;;18.30;99.90;;;;;;5016365;28;20610;-83
2021/03/30 08:47:40;;;;;;;12.20;7.83;;;18.20;99.90;;;;;;5012949;28;20237;-83
2021/03/30 08:50:22;;;;;;;14.40;7.83;;;18.20;99.90;;;;;;5010179;28;20235;-83
2021/03/30 08:52:51;;;;;;;16.57;7.80;;;18.40;99.90;;;;;;5012465;28;20697;-83
2021/03/30 08:55:27;;;;;;;14.30;7.77;;;18.60;99.90;;;;;;5012452;28;20239;-82
2021/03/30 08:58:00;;;;;;;9.90;7.27;;;18.70;99.90;;;;;;5010718;28;20245;-82
2021/03/30 09:00:29;;;;;;;10.93;6.80;;;19.00;99.90;;;;;;5009393;28;20235;-83
2021/03/30 09:03:03;;;;;;;12.90;7.10;;;19.10;99.90;;;;;;5003777;28;20239;-83
2021/03/30 09:05:38;;;;;;;14.70;7.87;;;19.30;99.90;;;;;;5025916;28;20249;-83
2021/03/30 09:08:06;;;;;;;15.13;7.83;;;19.50;99.90;;;;;;5020408;28;20239;-83
2021/03/30 09:10:36;;;;;;;13.20;7.87;;;19.60;99.90;;;;;;5001793;28;20271;-83
2021/03/30 09:13:12;;;;;;;13.63;7.90;;;19.90;99.90;;;;;;5018411;28;20289;-82
2021/03/30 09:15:40;;;;;;;11.10;7.10;;;19.90;99.90;;;;;;5006361;28;20794;-83
2021/03/30 09:18:10;;;;;;;14.40;8.17;;;20.00;99.90;;;;;;5010838;28;20329;-83
2021/03/30 09:20:39;;;;;;;10.57;7.37;;;20.10;99.90;;;;;;5012703;28;20243;-83
2021/03/30 09:23:15;;;;;;;11.30;7.60;;;20.30;99.90;;;;;;5019867;28;20302;-82
2021/03/30 09:25:44;;;;;;;14.67;7.70;;;20.20;99.90;;;;;;5017978;28;20242;-83
2021/03/30 09:28:16;;;;;;;10.23;7.17;;;20.10;99.90;;;;;;5031882;28;20244;-82
2021/03/30 09:30:45;;;;;;;12.60;7.40;;;20.20;99.90;;;;;;5019408;28;20231;-82
2021/03/30 09:33:14;;;;;;;9.80;7.40;;;20.40;99.90;;;;;;5017387;28;20259;-82
2021/03/30 09:35:42;;;;;;;12.17;7.13;;;20.60;99.90;;;;;;5010526;28;20252;-82
2021/03/30 09:38:10;;;;;;;13.17;7.63;;;20.80;99.90;;;;;;5016072;28;20296;-82
2021/03/30 09:40:40;;;;;;;11.77;7.90;;;21.00;99.90;;;;;;5011616;28;20306;-83
2021/03/30 09:43:11;;;;;;;10.57;7.10;;;21.20;99.90;;;;;;5012651;28;20237;-83
2021/03/30 09:45:42;;;;;;;12.43;7.00;;;21.20;99.90;;;;;;5010452;28;20320;-83
2021/03/30 09:48:14;;;;;;;9.30;7.40;;;21.30;99.90;;;;;;5023848;28;20249;-82
2021/03/30 09:50:46;;;;;;;13.63;7.13;;;21.20;99.90;;;;;;5011404;28;20593;-82
2021/03/30 09:53:15;;;;;;;9.13;6.97;;;21.20;99.90;;;;;;5014234;28;20248;-82
2021/03/30 09:55:47;;;;;;;12.00;6.70;;;21.30;99.90;;;;;;5006519;28;20298;-83
2021/03/30 09:58:17;;;;;;;9.53;6.40;;;21.60;99.90;;;;;;5014935;28;20327;-83
2021/03/30 10:00:49;;;;;;;10.53;7.13;;;21.70;99.90;;;;;;5009020;28;20295;-84
2021/03/30 10:03:18;;;;;;;11.33;6.83;;;21.90;99.90;;;;;;5009680;28;20251;-83
2021/03/30 10:05:46;;;;;;;10.97;6.57;;;22.10;99.90;;;;;;5015140;28;20240;-84
2021/03/30 10:08:22;;;;;;;12.33;6.73;;;21.90;99.90;;;;;;5014518;28;20244;-83
2021/03/30 10:10:54;;;;;;;10.77;7.00;;;21.90;99.90;;;;;;5010972;28;20251;-82
2021/03/30 10:13:26;;;;;;;10.10;6.50;;;21.90;99.90;;;;;;5010023;28;20711;-83
2021/03/30 10:15:56;;;;;;;7.93;6.07;;;22.00;99.90;;;;;;5009088;28;20236;-83
2021/03/30 10:18:26;;;;;;;9.23;6.23;;;22.10;99.90;;;;;;5014792;28;20763;-83
2021/03/30 10:20:58;;;;;;;7.30;6.07;;;22.20;99.90;;;;;;5013228;28;20778;-83
2021/03/30 10:23:28;;;;;;;11.90;6.53;;;22.30;99.90;;;;;;5009557;28;20322;-83
2021/03/30 10:26:13;;;;;;;8.80;6.13;;;22.40;99.90;;;;;;5009359;28;20229;-84
2021/03/30 10:28:42;;;;;;;8.87;5.87;;;22.50;99.90;;;;;;5011249;28;20245;-82
2021/03/30 10:31:14;;;;;;;8.77;6.40;;;22.70;99.90;;;;;;5010314;28;20408;-80
2021/03/30 10:33:45;;;;;;;9.13;6.43;;;22.70;99.90;;;;;;5009974;28;20292;-84
2021/03/30 10:36:14;;;;;;;9.07;6.03;;;22.90;99.90;;;;;;5012004;28;20225;-83
2021/03/30 10:38:42;;;;;;;9.63;6.37;;;22.90;99.90;;;;;;5011243;28;20240;-83
2021/03/30 10:41:12;;;;;;;8.17;5.73;;;22.90;99.90;;;;;;5010843;28;20306;-83
2021/03/30 10:43:40;;;;;;;7.93;5.63;;;23.20;99.90;;;;;;5006649;28;21197;-83
2021/03/30 10:46:22;;;;;;;8.27;5.50;;;23.30;99.90;;;;;;5012586;28;20233;-84
2021/03/30 10:49:17;;;;;;;7.53;5.57;;;23.40;99.90;;;;;;5004077;28;20233;-83
2021/03/30 10:51:46;;;;;;;6.60;5.00;;;23.40;99.90;;;;;;4992220;28;20261;-83
2021/03/30 10:54:18;;;;;;;9.97;5.97;;;23.50;99.90;;;;;;5000884;28;20316;-82
2021/03/30 10:56:46;;;;;;;5.87;4.97;;;23.60;99.90;;;;;;5009022;28;20240;-83
2021/03/30 10:59:15;;;;;;;7.80;5.20;;;23.60;99.90;;;;;;5006472;28;20316;-84
2021/03/30 11:01:44;;;;;;;7.03;4.80;;;23.60;99.90;;;;;;5013046;28;20332;-83
2021/03/30 11:04:37;;;;;;;6.63;4.60;;;23.70;99.90;;;;;;5007564;28;20237;-84
2021/03/30 11:07:05;;;;;;;8.63;5.17;;;23.70;99.90;;;;;;5013695;28;20591;-84
2021/03/30 11:10:00;;;;;;;6.77;4.27;;;23.60;99.90;;;;;;5009469;28;20227;-83
2021/03/30 11:12:34;;;;;;;6.43;4.27;;;23.70;99.90;;;;;;5005425;28;20232;-83
2021/03/30 11:15:27;;;;;;;6.07;4.30;;;23.70;99.90;;;;;;5009450;28;20302;-84
2021/03/30 11:17:55;;;;;;;5.67;3.87;;;23.80;99.90;;;;;;5003856;28;20826;-84
2021/03/30 11:20:24;;;;;;;6.27;4.03;;;23.90;99.90;;;;;;5006395;28;20256;-83
2021/03/30 11:22:53;;;;;;;5.53;4.40;;;24.10;99.90;;;;;;5002241;28;20242;-84
2021/03/30 11:25:46;;;;;;;5.70;4.37;;;24.30;99.90;;;;;;5003481;28;20237;-83
2021/03/30 11:28:41;;;;;;;5.60;3.60;;;24.20;99.90;;;;;;5008409;28;20242;-84
2021/03/30 11:31:14;;;;;;;9.40;3.60;;;24.10;99.90;;;;;;5002516;28;20321;-84
2021/03/30 11:34:15;;;;;;;6.00;3.27;;;24.20;99.90;;;;;;5008162;28;20312;-83
2021/03/30 11:37:19;;;;;;;6.63;3.63;;;24.20;99.90;;;;;;5004253;28;20245;-83
2021/03/30 11:39:47;;;;;;;6.40;3.70;;;24.10;99.90;;;;;;5015477;28;20241;-84
2021/03/30 11:42:16;;;;;;;5.77;3.27;;;24.00;99.90;;;;;;5022274;28;20238;-83
2021/03/30 11:44:44;;;;;;;7.03;3.37;;;24.00;99.90;;;;;;5015702;28;20242;-83
2021/03/30 11:47:15;;;;;;;5.50;3.33;;;23.80;99.90;;;;;;5014460;28;20618;-84
2021/03/30 11:49:46;;;;;;;4.47;3.27;;;23.80;99.90;;;;;;5013044;28;20309;-83
2021/03/30 11:52:37;;;;;;;5.83;3.33;;;23.90;99.90;;;;;;5013180;28;20264;-84
2021/03/30 11:55:07;;;;;;;6.90;4.20;;;23.80;99.90;;;;;;5004680;28;20232;-84
2021/03/30 11:57:35;;;;;;;6.17;3.63;;;23.80;99.90;;;;;;5013255;28;20297;-84
2021/03/30 12:00:04;;;;;;;7.37;3.87;;;23.60;99.90;;;;;;5014703;28;20239;-84
2021/03/30 12:02:50;;;;;;;5.37;3.20;;;23.40;99.90;;;;;;5021807;28;20304;-84
2021/03/30 12:05:20;;;;;;;6.53;3.50;;;23.40;99.90;;;;;;5002428;28;20633;-84
2021/03/30 12:07:49;;;;;;;7.20;3.60;;;23.10;99.90;;;;;;5014687;28;20236;-84
2021/03/30 12:10:22;;;;;;;4.80;3.43;;;23.10;99.90;;;;;;5016877;28;20654;-85
2021/03/30 12:12:50;;;;;;;5.77;3.07;;;23.00;99.90;;;;;;5019287;28;20307;-83
2021/03/30 12:15:18;;;;;;;8.87;3.13;;;22.90;99.90;;;;;;5016481;28;20741;-83
2021/03/30 12:17:45;;;;;;;6.50;3.20;;;22.90;99.90;;;;;;5023871;28;20241;-85
2021/03/30 12:20:16;;;;;;;6.10;3.10;;;22.90;99.90;;;;;;5016661;28;20250;-83
2021/03/30 12:22:45;;;;;;;5.37;3.60;;;22.70;99.90;;;;;;5006719;28;20317;-83
2021/03/30 12:25:13;;;;;;;7.30;3.60;;;22.60;99.90;;;;;;5012076;28;20245;-83
2021/03/30 12:27:41;;;;;;;7.00;3.70;;;22.70;99.90;;;;;;5005280;28;20243;-83
2021/03/30 12:30:10;;;;;;;8.20;3.80;;;22.70;99.90;;;;;;5008862;28;20257;-83
2021/03/30 12:32:39;;;;;;;7.37;3.43;;;22.60;99.90;;;;;;5011838;28;20299;-84
2021/03/30 12:35:08;;;;;;;5.73;3.10;;;22.50;99.90;;;;;;5006584;28;20241;-83
2021/03/30 12:37:39;;;;;;;5.20;3.37;;;22.30;99.90;;;;;;5010367;28;20237;-83
2021/03/30 12:40:10;;;;;;;6.77;3.10;;;22.40;99.90;;;;;;5009407;28;20609;-83
2021/03/30 12:42:38;;;;;;;7.03;3.40;;;22.20;99.90;;;;;;5015440;28;20245;-83
2021/03/30 12:45:08;;;;;;;9.17;4.23;;;22.10;99.90;;;;;;5029974;28;20284;-83
2021/03/30 12:47:36;;;;;;;11.80;3.07;;;21.80;99.90;;;;;;5011271;28;20806;-81
2021/03/30 12:50:06;;;;;;;10.63;3.27;;;21.60;99.90;;;;;;5006079;28;20291;-81
2021/03/30 12:52:34;;;;;;;8.67;3.20;;;21.70;99.90;;;;;;5012512;28;20245;-81
2021/03/30 12:55:06;;;;;;;5.87;2.97;;;21.80;99.90;;;;;;5010884;28;20692;-81
2021/03/30 12:57:35;;;;;;;6.57;2.80;;;21.90;99.90;;;;;;5004807;28;20243;-81
2021/03/30 13:00:05;;;;;;;5.47;2.80;;;21.90;99.90;;;;;;5013604;28;20233;-81
2021/03/30 13:02:33;;;;;;;7.67;2.80;;;21.70;99.90;;;;;;5009446;28;20237;-81
2021/03/30 13:05:01;;;;;;;6.67;2.83;;;21.70;99.90;;;;;;5007754;28;20236;-82
2021/03/30 13:07:28;;;;;;;7.63;3.67;;;21.70;99.90;;;;;;5011285;28;20237;-81
2021/03/30 13:09:56;;;;;;;6.63;3.10;;;21.70;99.90;;;;;;5011200;28;20241;-82